Time;durP1;ratioP1;P1;durP2;ratioP2;P2;SDS_P1;SDS_P2;PMS_P1;PMS_P2;Temp;Humidity;BMP_temperature;BMP_pressure;BME280_temperature;BME280_humidity;BME280_pressure;Samples;Min_cycle;Max_cycle;Signal;HPM_P1;HPM_P2
2022/08/16 00:00:57;;;;;;;4.10;3.73;;;17.30;99.90;18.20;96190.00;;;;4991717;28;20581;-84
2022/08/16 00:03:47;;;;;;;4.60;4.20;;;17.20;99.90;17.70;96181.00;;;;4996798;28;20379;-81
2022/08/16 00:06:36;;;;;;;4.07;3.67;;;17.10;99.90;17.70;96174.00;;;;5012015;28;20218;-83
2022/08/16 00:09:25;;;;;;;5.30;4.27;;;17.10;99.90;17.70;96179.00;;;;5007815;28;20210;-85
2022/08/16 00:12:14;;;;;;;5.37;3.00;;;16.90;99.90;18.00;96172.00;;;;4988630;28;20194;-85
2022/08/16 00:15:14;;;;;;;4.57;3.57;;;17.00;99.90;17.80;96178.00;;;;4986442;28;20230;-83
2022/08/16 00:18:04;;;;;;;5.27;3.77;;;17.00;99.90;18.20;96188.00;;;;4978647;28;20200;-84
2022/08/16 00:20:54;;;;;;;4.00;3.37;;;17.00;99.90;18.50;96184.00;;;;4969725;28;20207;-84
2022/08/16 00:23:43;;;;;;;3.47;3.17;;;17.10;99.90;18.50;96174.00;;;;4961198;28;20207;-84
2022/08/16 00:26:32;;;;;;;3.10;2.80;;;17.20;99.90;18.20;96171.00;;;;4991202;28;20226;-85
2022/08/16 00:29:22;;;;;;;3.23;3.03;;;17.20;99.90;18.10;96164.00;;;;4986874;28;20214;-85
2022/08/16 00:32:11;;;;;;;3.53;3.23;;;17.20;99.90;18.20;96166.00;;;;4977960;28;20203;-84
2022/08/16 00:35:00;;;;;;;3.80;3.50;;;17.20;99.90;18.30;96156.00;;;;4980520;28;20218;-85
2022/08/16 00:37:50;;;;;;;3.20;2.90;;;17.10;99.90;17.90;96159.00;;;;4978586;28;20204;-86
2022/08/16 00:40:44;;;;;;;3.90;3.23;;;17.10;99.90;18.00;96152.00;;;;4974931;28;20218;-84
2022/08/16 00:43:36;;;;;;;3.20;3.00;;;17.00;99.90;17.80;96157.00;;;;4976609;28;20693;-86
2022/08/16 00:46:31;;;;;;;3.57;3.27;;;17.00;99.90;17.90;96150.00;;;;4986566;28;20242;-86
2022/08/16 00:49:20;;;;;;;4.97;3.53;;;17.00;99.90;18.00;96157.00;;;;4986536;28;20201;-85
2022/08/16 00:52:10;;;;;;;2.97;2.77;;;16.90;99.90;17.90;96162.00;;;;4972930;28;20200;-86
2022/08/16 00:55:00;;;;;;;2.70;2.50;;;16.90;99.90;17.80;96167.00;;;;4991328;28;20194;-85
2022/08/16 00:57:53;;;;;;;2.50;2.30;;;16.90;99.90;18.00;96171.00;;;;4983715;28;20579;-87
2022/08/16 01:00:42;;;;;;;4.10;2.90;;;16.90;99.90;17.80;96174.00;;;;4988073;28;20206;-85
2022/08/16 01:03:32;;;;;;;4.77;3.03;;;16.90;99.90;18.10;96190.00;;;;4993732;28;20215;-85
2022/08/16 01:06:22;;;;;;;3.27;2.90;;;16.90;99.90;18.20;96182.00;;;;4992355;28;20728;-86
2022/08/16 01:09:11;;;;;;;2.73;2.53;;;16.90;99.90;18.20;96187.00;;;;4983236;28;20213;-85
2022/08/16 01:12:02;;;;;;;3.37;3.07;;;16.90;99.90;18.20;96186.00;;;;4982025;28;20556;-85
2022/08/16 01:14:57;;;;;;;2.40;2.20;;;16.90;99.90;18.10;96195.00;;;;4989543;28;20206;-86
2022/08/16 01:17:47;;;;;;;2.57;2.37;;;16.90;99.90;18.20;96194.00;;;;4975756;28;20203;-85
2022/08/16 01:20:45;;;;;;;2.93;2.73;;;16.90;99.90;18.10;96194.00;;;;4985907;28;20219;-86
2022/08/16 01:23:53;;;;;;;2.47;2.27;;;17.00;99.90;18.20;96192.00;;;;5005245;28;20183;-85
2022/08/16 01:26:45;;;;;;;2.80;2.60;;;16.90;99.90;18.30;96189.00;;;;4996748;28;20230;-84
2022/08/16 01:29:39;;;;;;;2.90;2.43;;;17.00;99.90;18.20;96188.00;;;;4998785;28;20693;-86
2022/08/16 01:32:30;;;;;;;3.03;2.83;;;17.00;99.90;18.00;96187.00;;;;4983438;28;20219;-86
2022/08/16 01:35:24;;;;;;;3.33;2.97;;;16.90;99.90;18.00;96199.00;;;;4990004;28;20218;-85
2022/08/16 01:38:22;;;;;;;6.13;3.43;;;16.90;99.90;17.80;96197.00;;;;4994271;28;20219;-84
2022/08/16 01:41:17;;;;;;;3.00;2.77;;;16.80;99.90;17.50;96188.00;;;;4988491;28;20203;-83
2022/08/16 01:44:08;;;;;;;3.30;3.00;;;16.70;99.90;17.50;96196.00;;;;4979718;28;20202;-84
2022/08/16 01:46:57;;;;;;;3.67;3.37;;;16.60;99.90;17.80;96191.00;;;;4982820;28;20246;-84
2022/08/16 01:49:46;;;;;;;2.80;2.60;;;16.60;99.90;17.90;96198.00;;;;4980198;28;20199;-85
2022/08/16 01:52:35;;;;;;;3.17;2.97;;;16.60;99.90;17.80;96195.00;;;;4971263;28;20674;-85
2022/08/16 01:55:25;;;;;;;5.00;2.70;;;16.60;99.90;17.90;96201.00;;;;5014068;23;20543;-84
2022/08/16 01:58:17;;;;;;;4.90;3.33;;;16.60;99.90;17.80;96199.00;;;;5121555;27;20191;-84
2022/08/16 02:01:07;;;;;;;3.10;2.87;;;16.60;99.90;17.80;96204.00;;;;5111527;27;20219;-85
2022/08/16 02:03:56;;;;;;;3.20;2.83;;;16.60;99.90;17.90;96211.00;;;;5111741;28;20690;-84
2022/08/16 02:06:45;;;;;;;3.87;2.70;;;16.60;99.90;18.00;96206.00;;;;5103165;28;20233;-85
2022/08/16 02:09:34;;;;;;;3.27;2.53;;;16.70;99.90;18.00;96212.00;;;;5102912;28;20215;-82
2022/08/16 02:12:22;;;;;;;3.03;2.73;;;16.70;99.90;18.10;96223.00;;;;5096367;28;20203;-86
2022/08/16 02:15:16;;;;;;;2.93;2.63;;;16.70;99.90;18.10;96235.00;;;;5110628;28;20203;-86
2022/08/16 02:18:06;;;;;;;3.47;3.17;;;16.80;99.90;18.10;96231.00;;;;5103646;28;20198;-85
2022/08/16 02:20:55;;;;;;;4.50;3.87;;;16.80;99.90;18.10;96222.00;;;;5106288;28;20458;-86
2022/08/16 02:23:44;;;;;;;3.27;2.90;;;16.80;99.90;18.00;96227.00;;;;5108839;28;20210;-86
2022/08/16 02:26:33;;;;;;;3.33;3.00;;;16.80;99.90;18.10;96222.00;;;;5111254;28;20551;-87
2022/08/16 02:29:23;;;;;;;3.80;3.47;;;16.80;99.90;18.10;96231.00;;;;5110183;27;20231;-86
2022/08/16 02:32:16;;;;;;;3.53;3.20;;;16.80;99.90;18.00;96237.00;;;;5112990;28;20217;-85
2022/08/16 02:35:06;;;;;;;3.60;3.30;;;16.80;99.90;17.90;96232.00;;;;5098519;28;20206;-85
2022/08/16 02:37:55;;;;;;;5.40;3.40;;;16.80;99.90;17.90;96240.00;;;;5114541;28;20198;-86
2022/08/16 02:40:44;;;;;;;2.93;2.63;;;16.80;99.90;17.90;96235.00;;;;5107321;28;20718;-85
2022/08/16 02:43:35;;;;;;;3.77;3.07;;;16.80;99.90;18.00;96235.00;;;;5112037;28;20543;-86
2022/08/16 02:46:24;;;;;;;4.13;2.90;;;16.70;99.90;17.90;96232.00;;;;5112217;28;20195;-86
2022/08/16 02:49:14;;;;;;;3.00;2.80;;;16.70;99.90;18.00;96243.00;;;;5105687;27;20229;-86
2022/08/16 02:52:03;;;;;;;4.17;3.63;;;16.70;99.90;17.80;96243.00;;;;5114079;27;20198;-86
2022/08/16 02:54:52;;;;;;;3.53;3.23;;;16.70;99.90;17.30;96239.00;;;;5106810;28;20229;-87
2022/08/16 02:57:41;;;;;;;4.70;3.57;;;16.60;99.90;17.30;96245.00;;;;5108191;28;20209;-85
2022/08/16 03:00:30;;;;;;;4.10;3.70;;;16.50;99.90;17.20;96247.00;;;;5116768;27;20242;-85
2022/08/16 03:03:19;;;;;;;3.73;3.30;;;16.40;99.90;17.20;96254.00;;;;5100700;28;20580;-85
2022/08/16 03:06:11;;;;;;;2.87;2.60;;;16.30;99.90;17.30;96249.00;;;;5106676;27;20199;-85
2022/08/16 03:09:00;;;;;;;6.00;3.20;;;16.20;99.90;17.40;96235.00;;;;5104846;28;20227;-86
2022/08/16 03:11:49;;;;;;;3.30;3.00;;;16.20;99.90;17.50;96233.00;;;;5102564;28;20199;-86
2022/08/16 03:14:38;;;;;;;3.40;3.07;;;16.20;99.90;17.40;96238.00;;;;5115023;27;20232;-86
2022/08/16 03:17:26;;;;;;;4.93;3.57;;;16.20;99.90;17.50;96230.00;;;;5107452;28;20592;-84
2022/08/16 03:20:16;;;;;;;5.23;3.57;;;16.20;99.90;17.60;96221.00;;;;5100246;28;20241;-85
2022/08/16 03:23:08;;;;;;;3.70;3.40;;;16.30;99.90;17.60;96223.00;;;;5112720;28;20194;-86
2022/08/16 03:25:57;;;;;;;3.80;3.50;;;16.30;99.90;17.60;96220.00;;;;5107989;28;20206;-85
2022/08/16 03:28:46;;;;;;;5.27;3.80;;;16.30;99.90;17.30;96214.00;;;;5114547;27;20833;-84
2022/08/16 03:31:35;;;;;;;5.00;3.60;;;16.30;99.90;17.00;96215.00;;;;5104604;28;20206;-86
2022/08/16 03:34:24;;;;;;;4.10;3.80;;;16.20;99.90;16.70;96203.00;;;;5110005;28;20191;-86
2022/08/16 03:37:13;;;;;;;3.53;3.23;;;16.10;99.90;16.80;96210.00;;;;5113868;28;20207;-87
2022/08/16 03:40:05;;;;;;;6.90;3.93;;;16.00;99.90;16.50;96197.00;;;;5112697;28;20710;-85
2022/08/16 03:42:54;;;;;;;3.40;3.10;;;15.90;99.90;17.10;96208.00;;;;5108831;27;20512;-86
2022/08/16 03:45:43;;;;;;;3.87;3.57;;;15.90;99.90;16.90;96207.00;;;;5112899;28;20202;-86
2022/08/16 03:48:38;;;;;;;4.03;3.67;;;15.90;99.90;17.10;96209.00;;;;5108048;28;20237;-86
2022/08/16 03:51:28;;;;;;;5.57;4.33;;;16.00;99.90;16.90;96212.00;;;;5095947;28;20672;-86
2022/08/16 03:54:16;;;;;;;4.43;4.03;;;16.00;99.90;17.00;96208.00;;;;5105646;28;20198;-86
2022/08/16 03:57:07;;;;;;;5.80;3.83;;;16.00;99.90;17.10;96213.00;;;;5101301;28;20209;-87
2022/08/16 03:59:56;;;;;;;3.63;3.33;;;16.00;99.90;17.00;96216.00;;;;5114872;28;20226;-85
2022/08/16 04:02:46;;;;;;;3.97;3.57;;;16.00;99.90;17.40;96216.00;;;;5104542;28;20198;-86
2022/08/16 04:05:36;;;;;;;8.23;4.07;;;16.10;99.90;17.00;96212.00;;;;5115973;28;20244;-87
2022/08/16 04:08:25;;;;;;;4.23;3.57;;;16.00;99.90;16.60;96220.00;;;;5116503;28;20218;-86
2022/08/16 04:11:14;;;;;;;3.80;3.43;;;16.00;99.90;16.80;96237.00;;;;5117364;28;20222;-87
2022/08/16 04:14:04;;;;;;;3.93;3.53;;;15.90;99.90;16.80;96241.00;;;;5108972;28;20203;-87
2022/08/16 04:16:54;;;;;;;4.33;3.60;;;15.90;99.90;17.20;96238.00;;;;5099381;28;20199;-86
2022/08/16 04:19:43;;;;;;;4.53;4.10;;;15.90;99.90;17.30;96248.00;;;;5118279;28;20223;-86
2022/08/16 04:22:32;;;;;;;4.20;3.80;;;16.00;99.90;17.40;96243.00;;;;5116710;28;20202;-85
2022/08/16 04:25:21;;;;;;;4.73;4.33;;;16.00;99.90;17.40;96242.00;;;;5109717;28;20198;-85
2022/08/16 04:28:11;;;;;;;4.80;4.30;;;16.00;99.90;17.60;96254.00;;;;5118043;28;20233;-86
2022/08/16 04:31:02;;;;;;;4.13;3.73;;;16.10;99.90;17.30;96263.00;;;;5110137;27;20233;-86
2022/08/16 04:33:51;;;;;;;4.60;4.20;;;16.20;99.90;17.50;96268.00;;;;5118272;28;20198;-85
2022/08/16 04:36:40;;;;;;;7.40;4.50;;;16.20;99.90;17.60;96263.00;;;;5113279;28;20195;-86
2022/08/16 04:39:32;;;;;;;6.00;4.50;;;16.20;99.90;17.80;96257.00;;;;5112379;28;20769;-85
2022/08/16 04:42:20;;;;;;;5.03;4.53;;;16.30;99.90;17.70;96265.00;;;;5115185;28;20195;-85
2022/08/16 04:45:12;;;;;;;4.50;4.10;;;16.40;99.90;17.60;96263.00;;;;5097845;28;20207;-85
2022/08/16 04:48:03;;;;;;;8.50;4.40;;;16.40;99.90;17.80;96268.00;;;;5108166;28;20234;-86
2022/08/16 04:50:52;;;;;;;4.53;4.10;;;16.50;99.90;17.40;96263.00;;;;5114843;28;20218;-86
2022/08/16 04:53:41;;;;;;;4.47;4.03;;;16.40;99.90;17.80;96275.00;;;;5115411;28;20202;-86
2022/08/16 04:56:30;;;;;;;4.63;3.93;;;16.50;99.90;17.80;96278.00;;;;5101515;28;20215;-85
2022/08/16 04:59:19;;;;;;;4.17;3.77;;;16.50;99.90;18.00;96282.00;;;;5099734;28;20222;-86
2022/08/16 05:02:08;;;;;;;5.63;4.73;;;16.50;99.90;17.90;96287.00;;;;5117850;28;20210;-85
2022/08/16 05:04:58;;;;;;;4.10;3.70;;;16.60;99.90;17.80;96288.00;;;;5119589;28;20194;-86
2022/08/16 05:07:48;;;;;;;4.10;3.70;;;16.60;99.90;17.80;96283.00;;;;5103185;28;20199;-85
2022/08/16 05:10:37;;;;;;;6.30;3.87;;;16.60;99.90;17.80;96289.00;;;;5109322;28;20236;-85
2022/08/16 05:13:26;;;;;;;6.03;4.00;;;16.60;99.90;17.90;96287.00;;;;5121391;28;20203;-86
2022/08/16 05:16:19;;;;;;;4.83;4.07;;;16.60;99.90;17.80;96280.00;;;;5123109;28;20202;-86
2022/08/16 05:19:08;;;;;;;4.93;4.20;;;16.60;99.90;17.90;96289.00;;;;5114606;28;20210;-85
2022/08/16 05:21:58;;;;;;;6.20;3.70;;;16.70;99.90;17.90;96280.00;;;;5124637;27;20191;-86
2022/08/16 05:24:48;;;;;;;4.60;3.80;;;16.70;99.90;18.10;96284.00;;;;5126094;27;20203;-86
2022/08/16 05:27:37;;;;;;;3.80;3.50;;;16.70;99.90;18.20;96281.00;;;;5114895;28;20199;-86
2022/08/16 05:30:26;;;;;;;3.90;3.60;;;16.80;99.90;18.60;96288.00;;;;5106394;28;20223;-85
2022/08/16 05:33:15;;;;;;;3.67;3.37;;;17.00;99.90;18.70;96285.00;;;;5134015;27;20197;-85
2022/08/16 05:36:05;;;;;;;3.97;3.57;;;17.10;99.90;19.20;96293.00;;;;5137101;27;20187;-85
2022/08/16 05:38:55;;;;;;;4.43;3.27;;;17.30;99.90;19.40;96288.00;;;;5132300;27;20327;-87
2022/08/16 05:41:44;;;;;;;4.27;3.20;;;17.50;99.90;19.50;96284.00;;;;5122635;28;20203;-84
2022/08/16 05:44:33;;;;;;;4.20;3.80;;;17.70;99.90;19.70;96289.00;;;;5102854;28;20611;-87
2022/08/16 05:47:22;;;;;;;4.07;3.67;;;17.90;99.90;20.00;96288.00;;;;5113997;28;20210;-85
2022/08/16 05:50:11;;;;;;;4.83;3.30;;;18.10;99.90;20.20;96292.00;;;;5123205;28;20226;-84
2022/08/16 05:53:00;;;;;;;2.80;2.60;;;18.30;99.90;20.40;96290.00;;;;5119289;28;20202;-87
2022/08/16 05:55:50;;;;;;;4.70;3.50;;;18.50;99.90;20.70;96296.00;;;;5109610;27;20211;-88
2022/08/16 05:58:39;;;;;;;3.73;3.30;;;18.70;99.90;21.00;96293.00;;;;5114006;27;20207;-87
2022/08/16 06:01:28;;;;;;;3.23;2.97;;;18.90;99.90;21.10;96297.00;;;;5117253;28;20592;-85
2022/08/16 06:04:18;;;;;;;3.03;2.83;;;19.10;99.90;21.00;96288.00;;;;5103700;28;20285;-86
2022/08/16 06:07:07;;;;;;;3.30;3.00;;;19.30;99.90;21.30;96296.00;;;;5109132;28;20195;-86
2022/08/16 06:09:58;;;;;;;4.33;2.63;;;19.40;99.90;21.30;96309.00;;;;5126584;28;20240;-87
2022/08/16 06:12:48;;;;;;;2.73;2.53;;;19.50;99.90;21.30;96308.00;;;;5120271;28;20206;-86
2022/08/16 06:15:39;;;;;;;3.93;3.50;;;19.70;99.90;21.50;96308.00;;;;5124048;27;20229;-86
2022/08/16 06:18:28;;;;;;;2.90;2.60;;;19.80;99.90;21.60;96309.00;;;;5109991;28;20203;-86
2022/08/16 06:21:17;;;;;;;3.00;2.80;;;19.90;99.90;21.50;96306.00;;;;5113274;28;20596;-86
2022/08/16 06:24:06;;;;;;;3.93;2.80;;;20.00;99.90;21.90;96309.00;;;;5124786;28;20206;-85
2022/08/16 06:26:55;;;;;;;2.83;2.60;;;20.10;99.90;22.10;96313.00;;;;5110207;28;20202;-86
2022/08/16 06:29:45;;;;;;;2.70;2.50;;;20.20;99.90;22.10;96310.00;;;;5123396;27;20726;-85
2022/08/16 06:32:34;;;;;;;2.57;2.37;;;20.30;99.90;22.20;96312.00;;;;5114084;27;20215;-86
2022/08/16 06:35:25;;;;;;;3.57;2.67;;;20.50;99.90;22.40;96309.00;;;;5117940;28;20218;-86
2022/08/16 06:38:14;;;;;;;2.33;2.13;;;20.60;99.90;22.60;96303.00;;;;5130252;28;20214;-86
2022/08/16 06:41:06;;;;;;;3.03;2.73;;;20.80;99.90;22.90;96306.00;;;;5121844;27;20214;-85
2022/08/16 06:43:56;;;;;;;3.30;2.20;;;21.00;99.90;23.10;96310.00;;;;5124754;27;20206;-86
2022/08/16 06:46:46;;;;;;;2.40;2.20;;;21.10;99.90;22.80;96324.00;;;;5106334;28;20207;-86
2022/08/16 06:49:35;;;;;;;3.00;2.70;;;21.20;99.90;23.00;96317.00;;;;5117814;28;20261;-86
2022/08/16 06:52:24;;;;;;;2.90;2.70;;;21.30;99.90;23.20;96323.00;;;;5108495;28;20198;-86
2022/08/16 06:55:17;;;;;;;2.73;2.53;;;21.40;99.90;23.40;96320.00;;;;5127093;28;20220;-86
2022/08/16 06:58:06;;;;;;;2.93;2.53;;;21.50;99.90;22.90;96321.00;;;;5113238;27;20199;-86
2022/08/16 07:00:55;;;;;;;3.13;2.50;;;21.60;99.90;23.50;96325.00;;;;5126021;27;20272;-86
2022/08/16 07:03:45;;;;;;;2.60;2.40;;;21.70;99.90;23.80;96322.00;;;;5104611;28;20199;-86
2022/08/16 07:06:34;;;;;;;2.80;2.60;;;21.80;99.90;24.00;96326.00;;;;5105175;28;20206;-86
2022/08/16 07:09:23;;;;;;;2.63;2.43;;;22.00;99.90;23.90;96318.00;;;;5112412;28;20227;-86
2022/08/16 07:12:12;;;;;;;2.27;2.07;;;22.00;99.90;24.00;96317.00;;;;5117501;28;20202;-86
2022/08/16 07:15:03;;;;;;;2.50;2.30;;;22.10;99.90;24.00;96316.00;;;;5121892;28;20586;-86
2022/08/16 07:17:52;;;;;;;2.70;2.50;;;22.20;99.90;23.90;96328.00;;;;5110060;27;20204;-86
2022/08/16 07:20:43;;;;;;;2.33;2.13;;;22.30;99.90;23.80;96328.00;;;;5113215;27;20602;-87
2022/08/16 07:23:32;;;;;;;3.40;2.20;;;22.30;99.90;23.80;96327.00;;;;5111755;28;20564;-86
2022/08/16 07:26:26;;;;;;;2.23;2.03;;;22.20;99.90;23.80;96328.00;;;;5115730;27;20433;-88
2022/08/16 07:29:15;;;;;;;2.50;2.30;;;22.20;99.90;23.70;96338.00;;;;5099022;28;20234;-86
2022/08/16 07:32:05;;;;;;;2.40;2.20;;;22.20;99.90;23.80;96328.00;;;;5123124;27;20202;-86
2022/08/16 07:34:54;;;;;;;2.50;2.30;;;22.10;99.90;23.80;96340.00;;;;5124005;27;20214;-87
2022/08/16 07:37:45;;;;;;;3.23;2.00;;;22.20;99.90;24.00;96334.00;;;;5127776;27;20219;-86
2022/08/16 07:40:34;;;;;;;4.00;2.60;;;22.20;99.90;23.90;96326.00;;;;5116818;28;20532;-87
2022/08/16 07:43:37;;;;;;;3.10;2.27;;;22.20;99.90;24.10;96339.00;;;;5108921;28;20205;-87
2022/08/16 07:46:26;;;;;;;2.37;1.90;;;22.30;99.90;24.00;96331.00;;;;5109531;28;20199;-87
2022/08/16 07:49:15;;;;;;;2.67;2.17;;;22.40;99.90;24.20;96326.00;;;;5118039;28;20226;-86
2022/08/16 07:52:04;;;;;;;3.60;2.63;;;22.40;99.90;24.40;96325.00;;;;5102767;28;20210;-86
2022/08/16 07:54:55;;;;;;;2.57;2.10;;;22.60;99.90;24.80;96328.00;;;;5115725;27;20209;-87
2022/08/16 07:57:45;;;;;;;2.33;2.20;;;22.70;99.90;24.80;96333.00;;;;5096080;28;20698;-86
2022/08/16 08:00:35;;;;;;;3.50;2.33;;;22.90;99.90;24.70;96327.00;;;;5100045;28;20226;-87
2022/08/16 08:03:24;;;;;;;2.73;1.57;;;23.00;99.90;24.80;96333.00;;;;5106035;28;20203;-86
2022/08/16 08:06:13;;;;;;;2.60;2.40;;;23.20;99.90;25.30;96318.00;;;;5109509;28;20202;-86
2022/08/16 08:09:02;;;;;;;2.60;2.03;;;23.40;99.90;25.60;96334.00;;;;5112674;27;20209;-87
2022/08/16 08:11:52;;;;;;;2.60;2.40;;;23.50;99.90;25.50;96335.00;;;;5119536;27;20209;-86
2022/08/16 08:14:42;;;;;;;2.40;2.20;;;23.70;99.90;25.40;96325.00;;;;5097339;28;20203;-86
2022/08/16 08:17:32;;;;;;;2.47;1.90;;;23.70;99.90;25.70;96338.00;;;;5113503;28;20217;-86
2022/08/16 08:20:25;;;;;;;2.07;1.87;;;23.80;99.90;26.00;96343.00;;;;5104542;28;20219;-86
2022/08/16 08:23:16;;;;;;;4.30;2.13;;;23.90;99.90;26.00;96333.00;;;;5112286;28;20560;-88
2022/08/16 08:26:06;;;;;;;3.77;2.03;;;24.00;99.90;26.00;96334.00;;;;5111659;28;20212;-88
2022/08/16 08:28:59;;;;;;;2.00;1.90;;;24.10;99.90;25.80;96342.00;;;;5109607;27;20203;-87
2022/08/16 08:31:48;;;;;;;2.23;2.03;;;24.10;99.90;25.40;96330.00;;;;5100758;28;20199;-86
2022/08/16 08:34:36;;;;;;;2.80;2.60;;;24.10;99.90;26.10;96339.00;;;;5120919;27;20209;-87
2022/08/16 08:37:26;;;;;;;2.07;1.97;;;24.20;99.90;25.80;96332.00;;;;5102124;28;20206;-87
2022/08/16 08:40:16;;;;;;;2.33;2.00;;;24.10;99.90;25.60;96332.00;;;;5119330;28;20214;-87
2022/08/16 08:43:05;;;;;;;2.00;1.90;;;24.30;99.90;26.00;96344.00;;;;5107303;28;20203;-87
2022/08/16 08:45:55;;;;;;;3.13;2.07;;;24.30;99.90;26.00;96349.00;;;;5111841;28;20214;-87
2022/08/16 08:48:45;;;;;;;3.17;2.20;;;24.30;99.90;25.50;96351.00;;;;5109396;28;20213;-87
2022/08/16 08:51:34;;;;;;;2.30;1.93;;;24.40;99.90;25.60;96354.00;;;;5103166;28;20968;-87
2022/08/16 08:54:24;;;;;;;2.40;2.10;;;24.30;99.90;26.00;96350.00;;;;5103701;28;20206;-87
2022/08/16 08:57:12;;;;;;;3.90;2.07;;;24.30;99.90;26.30;96352.00;;;;5098549;28;20218;-86
2022/08/16 09:00:03;;;;;;;2.43;2.23;;;24.40;99.90;26.30;96348.00;;;;5105333;28;20223;-87
2022/08/16 09:02:53;;;;;;;1.80;1.70;;;24.50;99.90;26.40;96348.00;;;;5126857;28;20201;-88
2022/08/16 09:05:43;;;;;;;3.03;2.17;;;24.60;99.90;27.00;96331.00;;;;5125931;28;20680;-86
2022/08/16 09:08:33;;;;;;;2.40;2.00;;;24.90;99.90;27.30;96323.00;;;;5125780;28;20183;-85
2022/08/16 09:11:22;;;;;;;1.90;1.80;;;25.20;99.90;28.00;96323.00;;;;5117325;28;20212;-88
2022/08/16 09:14:11;;;;;;;2.17;2.07;;;25.60;99.90;28.50;96352.00;;;;5121315;28;20200;-86
2022/08/16 09:17:00;;;;;;;2.37;2.17;;;25.90;99.90;28.00;96347.00;;;;5130945;28;20197;-86
2022/08/16 09:19:55;;;;;;;2.47;1.77;;;26.10;99.90;27.60;96350.00;;;;5118360;28;20226;-86
2022/08/16 09:22:44;;;;;;;2.30;1.70;;;26.20;99.20;27.10;96352.00;;;;5111910;28;20208;-86
2022/08/16 09:25:33;;;;;;;2.40;1.77;;;26.00;98.30;28.10;96336.00;;;;5110550;28;20214;-84
2022/08/16 09:28:23;;;;;;;1.80;1.70;;;26.10;98.10;28.50;96340.00;;;;5116872;28;20197;-85
2022/08/16 09:31:12;;;;;;;3.17;1.93;;;26.50;98.60;28.30;96346.00;;;;5124228;28;20243;-87
2022/08/16 09:34:01;;;;;;;2.10;2.00;;;26.60;96.70;28.40;96345.00;;;;5129347;28;20203;-86
2022/08/16 09:36:53;;;;;;;2.97;1.63;;;26.60;96.60;28.90;96320.00;;;;5135176;28;20203;-89
2022/08/16 09:39:43;;;;;;;2.40;1.97;;;26.80;96.70;29.30;96328.00;;;;5122936;28;20243;-84
2022/08/16 09:42:36;;;;;;;2.00;1.90;;;27.10;96.50;29.10;96332.00;;;;5121779;28;20210;-85
2022/08/16 09:45:27;;;;;;;2.13;1.73;;;27.30;94.70;29.30;96332.00;;;;5106062;28;20210;-85
2022/08/16 09:48:16;;;;;;;2.73;2.20;;;27.60;93.80;30.10;96318.00;;;;5111160;28;20193;-86
2022/08/16 09:51:05;;;;;;;1.73;1.63;;;27.80;94.20;30.50;96326.00;;;;5112927;28;20244;-85
2022/08/16 09:53:56;;;;;;;2.53;1.70;;;28.10;93.80;30.40;96325.00;;;;5121524;27;20214;-90
2022/08/16 09:56:46;;;;;;;2.03;1.80;;;28.40;91.90;29.70;96319.00;;;;5113719;28;20219;-90
2022/08/16 09:59:35;;;;;;;2.07;1.83;;;28.50;91.00;30.70;96323.00;;;;5106205;28;20219;-90
2022/08/16 10:02:24;;;;;;;2.67;1.80;;;28.70;89.80;31.10;96324.00;;;;5111516;27;20198;-87
2022/08/16 10:05:14;;;;;;;2.10;2.00;;;28.90;88.50;31.10;96315.00;;;;5119085;27;20551;-87
2022/08/16 10:08:03;;;;;;;2.50;2.10;;;29.00;88.50;31.40;96321.00;;;;5118360;27;20210;-85
2022/08/16 10:14:00;;;;;;;1.83;1.73;;;29.30;86.80;30.30;96325.00;;;;5124688;27;20312;-84
2022/08/16 10:16:50;;;;;;;3.00;1.83;;;29.00;83.80;31.30;96322.00;;;;5135729;27;20206;-85
2022/08/16 10:19:39;;;;;;;2.00;1.77;;;29.10;83.80;30.70;96317.00;;;;5121967;28;20229;-85
2022/08/16 10:22:27;;;;;;;2.28;2.10;;;29.30;82.30;31.80;96316.00;;;;5107203;28;20221;-85
2022/08/16 10:25:16;;;;;;;2.50;2.30;;;29.50;82.30;31.70;96310.00;;;;5103274;28;20221;-86
2022/08/16 10:28:07;;;;;;;2.20;2.00;;;29.60;85.90;31.90;96314.00;;;;5112011;28;20208;-85
2022/08/16 10:31:13;;;;;;;3.03;2.47;;;29.80;82.70;32.50;96308.00;;;;5115677;28;20252;-85
2022/08/16 10:34:01;;;;;;;3.42;2.90;;;30.10;82.90;31.90;96309.00;;;;5113737;27;20199;-86
2022/08/16 10:36:50;;;;;;;3.63;2.42;;;30.20;80.00;32.20;96306.00;;;;5112890;27;20655;-85
2022/08/16 10:39:39;;;;;;;1.70;1.60;;;30.30;81.70;32.60;96308.00;;;;5109281;28;20650;-85
2022/08/16 10:42:29;;;;;;;2.08;1.70;;;30.50;80.00;32.60;96308.00;;;;5096348;28;20209;-85
2022/08/16 10:45:20;;;;;;;2.00;1.90;;;30.60;77.00;32.70;96296.00;;;;5117798;28;20211;-85
2022/08/16 10:48:11;;;;;;;2.15;1.88;;;30.70;77.80;32.80;96305.00;;;;5102171;28;20672;-84
2022/08/16 10:51:00;;;;;;;2.50;2.30;;;30.80;75.70;32.50;96305.00;;;;5119125;28;20239;-85
2022/08/16 10:53:49;;;;;;;1.98;1.83;;;30.80;75.80;33.50;96304.00;;;;5119175;27;20209;-85
2022/08/16 10:56:38;;;;;;;3.30;2.20;;;31.00;76.90;33.90;96299.00;;;;5115771;28;20315;-84
2022/08/16 10:59:28;;;;;;;1.95;1.80;;;31.30;77.20;32.90;96295.00;;;;5112645;28;20236;-85
2022/08/16 11:02:19;;;;;;;2.40;2.20;;;31.50;74.40;33.60;96306.00;;;;5098254;28;20252;-84
2022/08/16 11:05:12;;;;;;;2.40;2.20;;;31.60;73.40;34.50;96295.00;;;;5102872;28;20208;-85
2022/08/16 11:08:02;;;;;;;2.58;2.28;;;31.90;74.20;34.00;96297.00;;;;5118329;27;20202;-85
2022/08/16 11:10:51;;;;;;;2.40;2.25;;;31.90;70.10;33.30;96347.00;;;;5118919;27;20234;-85
2022/08/16 11:13:48;;;;;;;2.58;2.38;;;31.90;69.90;32.00;96346.00;;;;5115530;27;20385;-85
2022/08/16 11:16:46;;;;;;;2.53;2.33;;;31.20;69.80;32.00;96351.00;;;;5121745;28;20254;-84
2022/08/16 11:19:51;;;;;;;2.78;2.45;;;30.80;71.40;31.80;96359.00;;;;5120823;28;20221;-85
2022/08/16 11:22:50;;;;;;;3.00;2.75;;;30.50;72.80;31.10;96357.00;;;;5093773;28;20226;-85
2022/08/16 11:25:39;;;;;;;2.90;2.70;;;30.00;70.90;31.00;96369.00;;;;5116434;28;20389;-84
2022/08/16 11:28:49;;;;;;;4.40;2.38;;;29.80;71.20;30.30;96368.00;;;;5118571;27;20235;-85
2022/08/16 11:31:58;;;;;;;2.55;2.35;;;29.50;70.60;30.70;96366.00;;;;5107040;28;20239;-84
2022/08/16 11:34:47;;;;;;;2.80;2.60;;;29.20;72.80;30.80;96370.00;;;;5122026;27;20206;-85
2022/08/16 11:37:58;;;;;;;3.05;2.85;;;29.10;74.10;31.00;96364.00;;;;5123904;27;20209;-84
2022/08/16 11:40:57;;;;;;;3.92;2.40;;;29.10;74.90;31.20;96367.00;;;;5128906;27;20210;-85
2022/08/16 11:43:46;;;;;;;4.20;2.90;;;29.10;75.90;31.30;96362.00;;;;5126991;27;20425;-84
2022/08/16 11:46:35;;;;;;;3.50;3.20;;;29.20;75.00;31.20;96367.00;;;;5108243;28;20400;-84
2022/08/16 11:49:24;;;;;;;3.20;2.90;;;29.30;74.30;31.30;96366.00;;;;5102876;28;20827;-84
2022/08/16 11:52:16;;;;;;;3.35;3.05;;;29.40;73.70;31.70;96361.00;;;;5111416;27;20223;-84
2022/08/16 11:55:10;;;;;;;2.65;2.45;;;29.50;74.40;31.70;96348.00;;;;5118078;27;20209;-83
2022/08/16 11:58:00;;;;;;;3.50;3.20;;;29.60;74.00;32.60;96318.00;;;;5113412;27;20778;-84
2022/08/16 12:00:49;;;;;;;3.20;3.00;;;30.00;70.60;33.10;96307.00;;;;5114801;27;20390;-84
2022/08/16 12:03:39;;;;;;;3.17;2.92;;;30.50;70.30;34.90;96288.00;;;;5110999;28;20198;-84
2022/08/16 12:06:28;;;;;;;3.22;2.92;;;31.20;71.90;34.60;96293.00;;;;5117304;27;20211;-85
2022/08/16 12:09:18;;;;;;;2.83;2.63;;;31.90;68.30;35.00;96330.00;;;;5122184;27;20220;-85
2022/08/16 12:12:09;;;;;;;3.45;3.15;;;32.20;67.10;35.50;96294.00;;;;5113294;28;20229;-84
2022/08/16 12:15:00;;;;;;;2.97;2.70;;;32.60;66.90;35.50;96353.00;;;;5106281;28;20261;-83
2022/08/16 12:17:49;;;;;;;2.88;2.67;;;32.80;65.30;33.30;96351.00;;;;5116514;27;20205;-84
2022/08/16 12:20:42;;;;;;;3.00;2.80;;;32.50;62.90;33.60;96345.00;;;;5121766;27;20230;-84
2022/08/16 12:23:31;;;;;;;4.28;2.38;;;32.30;64.60;34.40;96353.00;;;;5116309;28;20209;-84
2022/08/16 12:26:22;;;;;;;4.20;3.22;;;32.30;66.10;35.00;96354.00;;;;5095483;28;20218;-82
2022/08/16 12:29:12;;;;;;;3.17;2.45;;;32.40;66.70;34.80;96294.00;;;;5109659;27;20597;-84
2022/08/16 12:32:01;;;;;;;3.13;2.85;;;32.50;64.30;35.50;96295.00;;;;5115278;28;20222;-83
2022/08/16 12:34:51;;;;;;;3.22;3.03;;;32.80;64.80;35.50;96356.00;;;;5113096;28;20203;-83
2022/08/16 12:37:41;;;;;;;3.88;3.17;;;33.20;63.80;33.50;96353.00;;;;5110470;28;20218;-85
2022/08/16 12:40:33;;;;;;;4.22;3.50;;;32.90;59.90;33.80;96357.00;;;;5113725;28;20598;-83